sensor_id;sensor_type;location;lat;lon;timestamp;temperature;humidity
72591;SHT31;60625;51.212;5.952;2023-12-22T00:02:31;6.42;85.81
72591;SHT31;60625;51.212;5.952;2023-12-22T00:07:32;6.38;86.28
72591;SHT31;60625;51.212;5.952;2023-12-22T00:12:33;6.37;86.64
72591;SHT31;60625;51.212;5.952;2023-12-22T00:17:33;6.38;86.90
72591;SHT31;60625;51.212;5.952;2023-12-22T00:22:34;6.39;86.98
72591;SHT31;60625;51.212;5.952;2023-12-22T00:27:34;6.38;87.04
72591;SHT31;60625;51.212;5.952;2023-12-22T00:32:34;6.38;87.14
72591;SHT31;60625;51.212;5.952;2023-12-22T00:37:35;6.37;87.30
72591;SHT31;60625;51.212;5.952;2023-12-22T00:42:36;6.37;87.51
72591;SHT31;60625;51.212;5.952;2023-12-22T00:47:36;6.39;87.61
72591;SHT31;60625;51.212;5.952;2023-12-22T00:52:37;6.41;87.64
72591;SHT31;60625;51.212;5.952;2023-12-22T00:57:37;6.39;87.72
72591;SHT31;60625;51.212;5.952;2023-12-22T01:02:38;6.40;87.81
72591;SHT31;60625;51.212;5.952;2023-12-22T01:07:38;6.42;87.92
72591;SHT31;60625;51.212;5.952;2023-12-22T01:12:39;6.45;87.99
72591;SHT31;60625;51.212;5.952;2023-12-22T01:17:40;6.45;88.07
72591;SHT31;60625;51.212;5.952;2023-12-22T01:22:41;6.46;87.96
72591;SHT31;60625;51.212;5.952;2023-12-22T01:27:41;6.51;87.67
72591;SHT31;60625;51.212;5.952;2023-12-22T01:32:42;6.53;87.43
72591;SHT31;60625;51.212;5.952;2023-12-22T01:37:42;6.53;87.44
72591;SHT31;60625;51.212;5.952;2023-12-22T01:42:43;6.56;87.63
72591;SHT31;60625;51.212;5.952;2023-12-22T01:47:44;6.71;86.76
72591;SHT31;60625;51.212;5.952;2023-12-22T01:52:46;6.93;84.51
72591;SHT31;60625;51.212;5.952;2023-12-22T01:57:47;7.18;82.08
72591;SHT31;60625;51.212;5.952;2023-12-22T02:02:49;7.25;81.94
72591;SHT31;60625;51.212;5.952;2023-12-22T02:07:49;7.23;81.86
72591;SHT31;60625;51.212;5.952;2023-12-22T02:12:50;7.18;82.32
72591;SHT31;60625;51.212;5.952;2023-12-22T02:17:53;7.15;82.46
72591;SHT31;60625;51.212;5.952;2023-12-22T02:23:00;7.12;82.85
72591;SHT31;60625;51.212;5.952;2023-12-22T02:28:09;7.09;83.14
72591;SHT31;60625;51.212;5.952;2023-12-22T02:33:15;7.14;83.36
72591;SHT31;60625;51.212;5.952;2023-12-22T02:38:17;7.20;83.35
72591;SHT31;60625;51.212;5.952;2023-12-22T02:43:19;7.26;83.17
72591;SHT31;60625;51.212;5.952;2023-12-22T02:48:20;7.28;83.26
72591;SHT31;60625;51.212;5.952;2023-12-22T02:53:20;7.32;82.93
72591;SHT31;60625;51.212;5.952;2023-12-22T02:58:21;7.39;81.98
72591;SHT31;60625;51.212;5.952;2023-12-22T03:03:21;7.49;80.82
72591;SHT31;60625;51.212;5.952;2023-12-22T03:08:22;7.60;79.24
72591;SHT31;60625;51.212;5.952;2023-12-22T03:13:22;7.65;78.76
72591;SHT31;60625;51.212;5.952;2023-12-22T03:18:23;7.44;79.95
72591;SHT31;60625;51.212;5.952;2023-12-22T03:23:23;7.23;81.83
72591;SHT31;60625;51.212;5.952;2023-12-22T03:28:23;7.10;81.96
72591;SHT31;60625;51.212;5.952;2023-12-22T03:33:24;7.03;81.89
72591;SHT31;60625;51.212;5.952;2023-12-22T03:38:24;6.98;82.27
72591;SHT31;60625;51.212;5.952;2023-12-22T03:43:25;6.93;82.86
72591;SHT31;60625;51.212;5.952;2023-12-22T03:48:26;6.90;83.27
72591;SHT31;60625;51.212;5.952;2023-12-22T03:53:26;6.88;83.63
72591;SHT31;60625;51.212;5.952;2023-12-22T03:58:27;6.87;84.00
72591;SHT31;60625;51.212;5.952;2023-12-22T04:03:30;6.90;84.23
72591;SHT31;60625;51.212;5.952;2023-12-22T04:08:30;6.95;84.39
72591;SHT31;60625;51.212;5.952;2023-12-22T04:13:31;7.08;84.08
72591;SHT31;60625;51.212;5.952;2023-12-22T04:18:31;7.19;83.67
72591;SHT31;60625;51.212;5.952;2023-12-22T04:23:32;7.33;83.25
72591;SHT31;60625;51.212;5.952;2023-12-22T04:28:32;7.51;82.63
72591;SHT31;60625;51.212;5.952;2023-12-22T04:33:33;7.63;82.25
72591;SHT31;60625;51.212;5.952;2023-12-22T04:38:34;7.80;81.54
72591;SHT31;60625;51.212;5.952;2023-12-22T04:43:34;7.92;81.42
72591;SHT31;60625;51.212;5.952;2023-12-22T04:48:35;8.04;81.18
72591;SHT31;60625;51.212;5.952;2023-12-22T04:53:35;8.13;81.01
72591;SHT31;60625;51.212;5.952;2023-12-22T04:58:36;8.21;80.39
72591;SHT31;60625;51.212;5.952;2023-12-22T05:03:36;8.29;79.86
72591;SHT31;60625;51.212;5.952;2023-12-22T05:08:36;8.37;78.72
72591;SHT31;60625;51.212;5.952;2023-12-22T05:13:37;8.45;78.53
72591;SHT31;60625;51.212;5.952;2023-12-22T05:18:38;8.47;78.36
72591;SHT31;60625;51.212;5.952;2023-12-22T05:23:40;8.50;78.45
72591;SHT31;60625;51.212;5.952;2023-12-22T05:28:40;8.49;78.46
72591;SHT31;60625;51.212;5.952;2023-12-22T05:33:40;8.48;78.32
72591;SHT31;60625;51.212;5.952;2023-12-22T05:38:41;8.51;78.09
72591;SHT31;60625;51.212;5.952;2023-12-22T05:43:42;8.50;78.64
72591;SHT31;60625;51.212;5.952;2023-12-22T05:48:43;8.46;79.21
72591;SHT31;60625;51.212;5.952;2023-12-22T05:53:43;8.45;79.71
72591;SHT31;60625;51.212;5.952;2023-12-22T05:58:43;8.47;80.63
72591;SHT31;60625;51.212;5.952;2023-12-22T06:03:44;8.48;80.94
72591;SHT31;60625;51.212;5.952;2023-12-22T06:08:46;8.50;80.32
72591;SHT31;60625;51.212;5.952;2023-12-22T06:13:46;8.50;81.21
72591;SHT31;60625;51.212;5.952;2023-12-22T06:18:47;8.50;81.89
72591;SHT31;60625;51.212;5.952;2023-12-22T06:23:47;8.50;82.19
72591;SHT31;60625;51.212;5.952;2023-12-22T06:28:47;8.51;82.31
72591;SHT31;60625;51.212;5.952;2023-12-22T06:33:48;8.51;82.40
72591;SHT31;60625;51.212;5.952;2023-12-22T06:38:51;8.49;82.54
72591;SHT31;60625;51.212;5.952;2023-12-22T06:43:53;8.48;82.56
72591;SHT31;60625;51.212;5.952;2023-12-22T06:48:55;8.51;82.43
72591;SHT31;60625;51.212;5.952;2023-12-22T06:53:57;8.51;82.40
72591;SHT31;60625;51.212;5.952;2023-12-22T06:59:00;8.54;82.13
72591;SHT31;60625;51.212;5.952;2023-12-22T07:04:02;8.57;82.16
72591;SHT31;60625;51.212;5.952;2023-12-22T07:14:20;8.60;82.78
72591;SHT31;60625;51.212;5.952;2023-12-22T07:19:20;8.58;83.57
72591;SHT31;60625;51.212;5.952;2023-12-22T07:24:21;8.55;83.90
72591;SHT31;60625;51.212;5.952;2023-12-22T07:29:21;8.52;84.14
72591;SHT31;60625;51.212;5.952;2023-12-22T07:34:21;8.53;83.99
72591;SHT31;60625;51.212;5.952;2023-12-22T07:39:22;8.57;83.71
72591;SHT31;60625;51.212;5.952;2023-12-22T07:44:23;8.59;83.50
72591;SHT31;60625;51.212;5.952;2023-12-22T07:49:24;8.62;83.40
72591;SHT31;60625;51.212;5.952;2023-12-22T07:54:25;8.67;83.07
72591;SHT31;60625;51.212;5.952;2023-12-22T07:59:26;8.71;83.01
72591;SHT31;60625;51.212;5.952;2023-12-22T08:04:26;8.75;82.93
72591;SHT31;60625;51.212;5.952;2023-12-22T08:09:27;8.78;82.82
72591;SHT31;60625;51.212;5.952;2023-12-22T08:14:27;8.83;82.57
72591;SHT31;60625;51.212;5.952;2023-12-22T08:19:28;8.87;82.62
72591;SHT31;60625;51.212;5.952;2023-12-22T08:24:29;8.92;82.61
72591;SHT31;60625;51.212;5.952;2023-12-22T08:29:29;8.98;82.62
72591;SHT31;60625;51.212;5.952;2023-12-22T08:34:30;9.02;82.67
72591;SHT31;60625;51.212;5.952;2023-12-22T08:39:30;9.07;82.69
72591;SHT31;60625;51.212;5.952;2023-12-22T08:44:31;9.10;82.81
72591;SHT31;60625;51.212;5.952;2023-12-22T08:49:32;9.13;82.89
72591;SHT31;60625;51.212;5.952;2023-12-22T08:54:32;9.14;83.00
72591;SHT31;60625;51.212;5.952;2023-12-22T08:59:34;9.18;83.02
72591;SHT31;60625;51.212;5.952;2023-12-22T09:04:34;9.22;83.06
72591;SHT31;60625;51.212;5.952;2023-12-22T09:09:35;9.25;83.14
72591;SHT31;60625;51.212;5.952;2023-12-22T09:14:35;9.29;83.21
72591;SHT31;60625;51.212;5.952;2023-12-22T09:19:36;9.33;83.28
72591;SHT31;60625;51.212;5.952;2023-12-22T09:24:38;9.37;83.50
72591;SHT31;60625;51.212;5.952;2023-12-22T09:29:39;9.38;83.98
72591;SHT31;60625;51.212;5.952;2023-12-22T09:34:39;9.34;84.65
72591;SHT31;60625;51.212;5.952;2023-12-22T09:39:40;9.31;85.22
72591;SHT31;60625;51.212;5.952;2023-12-22T09:44:41;9.26;85.91
72591;SHT31;60625;51.212;5.952;2023-12-22T09:49:43;9.22;86.42
72591;SHT31;60625;51.212;5.952;2023-12-22T09:54:45;9.17;86.82
72591;SHT31;60625;51.212;5.952;2023-12-22T09:59:48;9.16;87.21
72591;SHT31;60625;51.212;5.952;2023-12-22T10:04:49;9.15;87.56
72591;SHT31;60625;51.212;5.952;2023-12-22T10:09:49;9.15;88.04
72591;SHT31;60625;51.212;5.952;2023-12-22T10:14:51;9.18;88.30
72591;SHT31;60625;51.212;5.952;2023-12-22T10:19:53;9.22;88.64
72591;SHT31;60625;51.212;5.952;2023-12-22T10:24:54;9.29;88.78
72591;SHT31;60625;51.212;5.952;2023-12-22T10:29:55;9.39;88.81
72591;SHT31;60625;51.212;5.952;2023-12-22T10:34:57;9.49;88.74
72591;SHT31;60625;51.212;5.952;2023-12-22T10:39:57;9.59;88.60
72591;SHT31;60625;51.212;5.952;2023-12-22T10:44:58;9.66;88.45
72591;SHT31;60625;51.212;5.952;2023-12-22T10:50:04;9.75;88.26
72591;SHT31;60625;51.212;5.952;2023-12-22T10:55:05;9.86;87.82
72591;SHT31;60625;51.212;5.952;2023-12-22T11:00:07;9.95;87.38
72591;SHT31;60625;51.212;5.952;2023-12-22T11:05:10;10.07;86.82
72591;SHT31;60625;51.212;5.952;2023-12-22T11:10:12;10.16;86.47
72591;SHT31;60625;51.212;5.952;2023-12-22T11:15:14;10.22;86.01
72591;SHT31;60625;51.212;5.952;2023-12-22T11:20:16;10.27;85.88
72591;SHT31;60625;51.212;5.952;2023-12-22T11:25:18;10.34;85.38
72591;SHT31;60625;51.212;5.952;2023-12-22T11:30:21;10.43;85.02
72591;SHT31;60625;51.212;5.952;2023-12-22T11:35:23;10.52;84.42
72591;SHT31;60625;51.212;5.952;2023-12-22T11:40:24;10.60;83.81
72591;SHT31;60625;51.212;5.952;2023-12-22T11:45:25;10.66;83.53
72591;SHT31;60625;51.212;5.952;2023-12-22T11:50:29;10.69;83.46
72591;SHT31;60625;51.212;5.952;2023-12-22T12:01:00;10.77;82.68
72591;SHT31;60625;51.212;5.952;2023-12-22T12:06:10;10.81;82.50
72591;SHT31;60625;51.212;5.952;2023-12-22T12:11:14;10.83;82.38
72591;SHT31;60625;51.212;5.952;2023-12-22T12:16:18;10.84;82.09
72591;SHT31;60625;51.212;5.952;2023-12-22T12:21:24;10.89;81.38
72591;SHT31;60625;51.212;5.952;2023-12-22T12:26:24;10.91;81.39
72591;SHT31;60625;51.212;5.952;2023-12-22T12:31:35;10.91;82.18
72591;SHT31;60625;51.212;5.952;2023-12-22T12:36:41;10.86;82.79
72591;SHT31;60625;51.212;5.952;2023-12-22T12:41:42;10.84;83.22
72591;SHT31;60625;51.212;5.952;2023-12-22T12:46:44;10.84;83.39
72591;SHT31;60625;51.212;5.952;2023-12-22T12:51:46;10.84;83.14
72591;SHT31;60625;51.212;5.952;2023-12-22T12:56:48;10.86;82.82
72591;SHT31;60625;51.212;5.952;2023-12-22T13:01:48;10.89;82.61
72591;SHT31;60625;51.212;5.952;2023-12-22T13:06:49;10.91;82.31
72591;SHT31;60625;51.212;5.952;2023-12-22T13:11:50;10.92;81.74
72591;SHT31;60625;51.212;5.952;2023-12-22T13:16:51;10.96;81.26
72591;SHT31;60625;51.212;5.952;2023-12-22T13:21:56;10.97;80.99
72591;SHT31;60625;51.212;5.952;2023-12-22T13:27:00;10.99;80.95
72591;SHT31;60625;51.212;5.952;2023-12-22T13:32:03;11.00;80.71
72591;SHT31;60625;51.212;5.952;2023-12-22T13:37:04;11.02;80.56
72591;SHT31;60625;51.212;5.952;2023-12-22T13:42:05;11.03;80.41
72591;SHT31;60625;51.212;5.952;2023-12-22T13:47:16;11.03;80.31
72591;SHT31;60625;51.212;5.952;2023-12-22T13:52:25;11.03;80.29
72591;SHT31;60625;51.212;5.952;2023-12-22T13:57:34;11.04;80.18
72591;SHT31;60625;51.212;5.952;2023-12-22T14:02:35;11.05;79.92
72591;SHT31;60625;51.212;5.952;2023-12-22T14:07:35;11.06;80.04
72591;SHT31;60625;51.212;5.952;2023-12-22T14:12:37;11.06;79.75
72591;SHT31;60625;51.212;5.952;2023-12-22T14:17:40;11.07;79.93
72591;SHT31;60625;51.212;5.952;2023-12-22T14:22:43;11.05;79.93
72591;SHT31;60625;51.212;5.952;2023-12-22T14:27:44;11.06;79.58
72591;SHT31;60625;51.212;5.952;2023-12-22T14:32:44;11.09;79.29
72591;SHT31;60625;51.212;5.952;2023-12-22T14:37:45;11.10;79.04
72591;SHT31;60625;51.212;5.952;2023-12-22T14:42:46;11.13;78.92
72591;SHT31;60625;51.212;5.952;2023-12-22T14:47:47;11.10;79.89
72591;SHT31;60625;51.212;5.952;2023-12-22T14:52:47;11.04;80.39
72591;SHT31;60625;51.212;5.952;2023-12-22T14:57:48;10.96;80.90
72591;SHT31;60625;51.212;5.952;2023-12-22T15:02:48;10.91;80.76
72591;SHT31;60625;51.212;5.952;2023-12-22T15:07:49;10.93;80.21
72591;SHT31;60625;51.212;5.952;2023-12-22T15:12:49;10.94;80.04
72591;SHT31;60625;51.212;5.952;2023-12-22T15:17:50;10.94;79.88
72591;SHT31;60625;51.212;5.952;2023-12-22T15:22:51;10.95;79.70
72591;SHT31;60625;51.212;5.952;2023-12-22T15:27:51;10.94;79.92
72591;SHT31;60625;51.212;5.952;2023-12-22T15:32:52;10.90;80.27
72591;SHT31;60625;51.212;5.952;2023-12-22T15:37:52;10.87;80.71
72591;SHT31;60625;51.212;5.952;2023-12-22T15:42:52;10.86;80.89
72591;SHT31;60625;51.212;5.952;2023-12-22T15:47:53;10.91;80.10
72591;SHT31;60625;51.212;5.952;2023-12-22T15:52:54;10.94;79.48
72591;SHT31;60625;51.212;5.952;2023-12-22T15:57:54;10.96;79.25
72591;SHT31;60625;51.212;5.952;2023-12-22T16:02:54;10.97;79.42
72591;SHT31;60625;51.212;5.952;2023-12-22T16:07:55;10.96;79.25
72591;SHT31;60625;51.212;5.952;2023-12-22T16:12:58;10.98;79.06
72591;SHT31;60625;51.212;5.952;2023-12-22T16:17:59;10.97;79.19
72591;SHT31;60625;51.212;5.952;2023-12-22T16:23:02;10.95;78.99
72591;SHT31;60625;51.212;5.952;2023-12-22T16:28:04;10.95;78.57
72591;SHT31;60625;51.212;5.952;2023-12-22T16:33:05;10.99;78.04
72591;SHT31;60625;51.212;5.952;2023-12-22T16:38:05;11.03;78.03
72591;SHT31;60625;51.212;5.952;2023-12-22T16:43:06;11.06;77.86
72591;SHT31;60625;51.212;5.952;2023-12-22T16:48:07;11.07;78.06
72591;SHT31;60625;51.212;5.952;2023-12-22T16:53:07;11.05;78.25
72591;SHT31;60625;51.212;5.952;2023-12-22T16:58:08;11.05;78.11
72591;SHT31;60625;51.212;5.952;2023-12-22T17:03:08;11.06;78.13
72591;SHT31;60625;51.212;5.952;2023-12-22T17:08:09;11.05;78.25
72591;SHT31;60625;51.212;5.952;2023-12-22T17:13:10;11.04;78.39
72591;SHT31;60625;51.212;5.952;2023-12-22T17:18:11;11.03;78.55
72591;SHT31;60625;51.212;5.952;2023-12-22T17:23:11;11.02;78.49
72591;SHT31;60625;51.212;5.952;2023-12-22T17:28:12;11.01;78.57
72591;SHT31;60625;51.212;5.952;2023-12-22T17:33:12;11.01;78.17
72591;SHT31;60625;51.212;5.952;2023-12-22T17:38:13;11.04;78.07
72591;SHT31;60625;51.212;5.952;2023-12-22T17:43:13;11.05;77.83
72591;SHT31;60625;51.212;5.952;2023-12-22T17:48:15;11.08;77.51
72591;SHT31;60625;51.212;5.952;2023-12-22T17:53:16;11.11;77.40
72591;SHT31;60625;51.212;5.952;2023-12-22T17:58:16;11.12;77.29
72591;SHT31;60625;51.212;5.952;2023-12-22T18:03:17;11.11;77.50
72591;SHT31;60625;51.212;5.952;2023-12-22T18:08:18;11.09;77.69
72591;SHT31;60625;51.212;5.952;2023-12-22T18:13:18;11.07;77.82
72591;SHT31;60625;51.212;5.952;2023-12-22T18:18:19;11.06;77.76
72591;SHT31;60625;51.212;5.952;2023-12-22T18:23:20;11.09;77.18
72591;SHT31;60625;51.212;5.952;2023-12-22T18:28:20;11.11;76.77
72591;SHT31;60625;51.212;5.952;2023-12-22T18:33:21;11.13;76.60
72591;SHT31;60625;51.212;5.952;2023-12-22T18:38:23;11.11;76.79
72591;SHT31;60625;51.212;5.952;2023-12-22T18:43:24;11.09;76.93
72591;SHT31;60625;51.212;5.952;2023-12-22T18:48:25;11.10;77.11
72591;SHT31;60625;51.212;5.952;2023-12-22T18:53:25;11.04;77.93
72591;SHT31;60625;51.212;5.952;2023-12-22T18:58:25;10.98;77.76
72591;SHT31;60625;51.212;5.952;2023-12-22T19:03:28;10.97;76.86
72591;SHT31;60625;51.212;5.952;2023-12-22T19:08:29;10.97;76.54
72591;SHT31;60625;51.212;5.952;2023-12-22T19:13:29;10.98;76.19
72591;SHT31;60625;51.212;5.952;2023-12-22T19:18:30;11.02;75.78
72591;SHT31;60625;51.212;5.952;2023-12-22T19:23:31;11.04;75.77
72591;SHT31;60625;51.212;5.952;2023-12-22T19:28:31;11.04;75.37
72591;SHT31;60625;51.212;5.952;2023-12-22T19:33:32;11.02;75.51
72591;SHT31;60625;51.212;5.952;2023-12-22T19:38:32;10.98;75.12
72591;SHT31;60625;51.212;5.952;2023-12-22T19:43:33;10.95;75.61
72591;SHT31;60625;51.212;5.952;2023-12-22T19:48:33;10.89;76.20
72591;SHT31;60625;51.212;5.952;2023-12-22T19:53:34;10.86;76.18
72591;SHT31;60625;51.212;5.952;2023-12-22T19:58:34;10.85;76.51
72591;SHT31;60625;51.212;5.952;2023-12-22T20:03:35;10.82;77.07
72591;SHT31;60625;51.212;5.952;2023-12-22T20:08:36;10.76;77.46
72591;SHT31;60625;51.212;5.952;2023-12-22T20:13:37;10.68;77.37
72591;SHT31;60625;51.212;5.952;2023-12-22T20:18:38;10.66;77.06
72591;SHT31;60625;51.212;5.952;2023-12-22T20:23:39;10.64;77.04
72591;SHT31;60625;51.212;5.952;2023-12-22T20:28:40;10.61;76.96
72591;SHT31;60625;51.212;5.952;2023-12-22T20:33:40;10.59;77.10
72591;SHT31;60625;51.212;5.952;2023-12-22T20:38:41;10.59;77.19
72591;SHT31;60625;51.212;5.952;2023-12-22T20:43:41;10.59;77.54
72591;SHT31;60625;51.212;5.952;2023-12-22T20:48:42;10.59;77.75
72591;SHT31;60625;51.212;5.952;2023-12-22T20:53:42;10.60;77.57
72591;SHT31;60625;51.212;5.952;2023-12-22T20:58:43;10.63;76.83
72591;SHT31;60625;51.212;5.952;2023-12-22T21:03:43;10.67;76.63
72591;SHT31;60625;51.212;5.952;2023-12-22T21:08:44;10.70;76.62
72591;SHT31;60625;51.212;5.952;2023-12-22T21:13:45;10.69;76.96
72591;SHT31;60625;51.212;5.952;2023-12-22T21:18:48;10.68;76.76
72591;SHT31;60625;51.212;5.952;2023-12-22T21:23:48;10.68;76.44
72591;SHT31;60625;51.212;5.952;2023-12-22T21:28:49;10.69;76.21
72591;SHT31;60625;51.212;5.952;2023-12-22T21:33:49;10.71;75.94
72591;SHT31;60625;51.212;5.952;2023-12-22T21:38:50;10.70;75.78
72591;SHT31;60625;51.212;5.952;2023-12-22T21:43:51;10.72;75.23
72591;SHT31;60625;51.212;5.952;2023-12-22T21:48:52;10.74;75.14
72591;SHT31;60625;51.212;5.952;2023-12-22T21:53:53;10.58;76.06
72591;SHT31;60625;51.212;5.952;2023-12-22T21:58:53;9.48;83.46
72591;SHT31;60625;51.212;5.952;2023-12-22T22:03:54;8.70;85.52
72591;SHT31;60625;51.212;5.952;2023-12-22T22:08:54;8.32;85.79
72591;SHT31;60625;51.212;5.952;2023-12-22T22:13:55;8.16;86.09
72591;SHT31;60625;51.212;5.952;2023-12-22T22:18:56;8.09;86.46
72591;SHT31;60625;51.212;5.952;2023-12-22T22:23:56;8.04;86.82
72591;SHT31;60625;51.212;5.952;2023-12-22T22:28:57;8.03;86.76
72591;SHT31;60625;51.212;5.952;2023-12-22T22:33:57;8.01;86.89
72591;SHT31;60625;51.212;5.952;2023-12-22T22:38:58;7.98;87.34
72591;SHT31;60625;51.212;5.952;2023-12-22T22:43:58;7.98;87.61
72591;SHT31;60625;51.212;5.952;2023-12-22T22:48:59;7.93;88.06
72591;SHT31;60625;51.212;5.952;2023-12-22T22:53:59;7.93;88.11
72591;SHT31;60625;51.212;5.952;2023-12-22T22:59:00;7.95;88.15
72591;SHT31;60625;51.212;5.952;2023-12-22T23:04:00;7.97;88.14
72591;SHT31;60625;51.212;5.952;2023-12-22T23:09:01;7.97;88.48
72591;SHT31;60625;51.212;5.952;2023-12-22T23:14:02;7.97;88.45
72591;SHT31;60625;51.212;5.952;2023-12-22T23:19:04;7.98;88.43
72591;SHT31;60625;51.212;5.952;2023-12-22T23:24:04;7.99;88.32
72591;SHT31;60625;51.212;5.952;2023-12-22T23:29:06;7.97;88.42
72591;SHT31;60625;51.212;5.952;2023-12-22T23:34:06;7.94;88.24
72591;SHT31;60625;51.212;5.952;2023-12-22T23:39:07;7.94;87.96
72591;SHT31;60625;51.212;5.952;2023-12-22T23:44:08;7.91;87.98
72591;SHT31;60625;51.212;5.952;2023-12-22T23:49:09;7.89;88.11
72591;SHT31;60625;51.212;5.952;2023-12-22T23:54:10;7.89;88.08
72591;SHT31;60625;51.212;5.952;2023-12-22T23:59:10;7.87;88.01
